sensor_id;sensor_type;location;lat;lon;timestamp;temperature;humidity
33655;DHT22;19997;51.274;22.506;2023-04-25T00:01:03;14.70;73.00
33655;DHT22;19997;51.274;22.506;2023-04-25T00:03:31;14.60;72.60
33655;DHT22;19997;51.274;22.506;2023-04-25T00:05:58;14.60;72.60
33655;DHT22;19997;51.274;22.506;2023-04-25T00:08:28;14.60;72.70
33655;DHT22;19997;51.274;22.506;2023-04-25T00:10:57;14.50;73.00
33655;DHT22;19997;51.274;22.506;2023-04-25T00:13:24;14.40;73.00
33655;DHT22;19997;51.274;22.506;2023-04-25T00:15:52;14.30;73.20
33655;DHT22;19997;51.274;22.506;2023-04-25T00:18:20;14.30;73.70
33655;DHT22;19997;51.274;22.506;2023-04-25T00:20:47;14.20;73.90
33655;DHT22;19997;51.274;22.506;2023-04-25T00:23:14;14.10;74.10
33655;DHT22;19997;51.274;22.506;2023-04-25T00:25:43;14.00;74.00
33655;DHT22;19997;51.274;22.506;2023-04-25T00:28:12;13.90;74.30
33655;DHT22;19997;51.274;22.506;2023-04-25T00:30:40;13.80;74.40
33655;DHT22;19997;51.274;22.506;2023-04-25T00:33:07;13.80;74.70
33655;DHT22;19997;51.274;22.506;2023-04-25T00:35:35;13.70;74.70
33655;DHT22;19997;51.274;22.506;2023-04-25T00:38:02;13.60;74.70
33655;DHT22;19997;51.274;22.506;2023-04-25T00:40:29;13.60;75.20
33655;DHT22;19997;51.274;22.506;2023-04-25T00:42:56;13.50;75.10
33655;DHT22;19997;51.274;22.506;2023-04-25T00:45:27;13.50;75.70
33655;DHT22;19997;51.274;22.506;2023-04-25T00:47:55;13.40;75.70
33655;DHT22;19997;51.274;22.506;2023-04-25T00:50:23;13.40;75.80
33655;DHT22;19997;51.274;22.506;2023-04-25T00:52:50;13.40;76.10
33655;DHT22;19997;51.274;22.506;2023-04-25T00:55:17;13.40;76.30
33655;DHT22;19997;51.274;22.506;2023-04-25T00:57:45;13.50;76.70
33655;DHT22;19997;51.274;22.506;2023-04-25T01:00:13;13.50;76.80
33655;DHT22;19997;51.274;22.506;2023-04-25T01:02:42;13.60;77.50
33655;DHT22;19997;51.274;22.506;2023-04-25T01:05:10;13.60;77.80
33655;DHT22;19997;51.274;22.506;2023-04-25T01:07:37;13.60;77.70
33655;DHT22;19997;51.274;22.506;2023-04-25T01:10:06;13.60;77.90
33655;DHT22;19997;51.274;22.506;2023-04-25T01:12:33;13.60;78.10
33655;DHT22;19997;51.274;22.506;2023-04-25T01:15:01;13.50;79.00
33655;DHT22;19997;51.274;22.506;2023-04-25T01:17:28;13.50;78.30
33655;DHT22;19997;51.274;22.506;2023-04-25T01:19:58;13.40;78.40
33655;DHT22;19997;51.274;22.506;2023-04-25T01:22:27;13.30;78.60
33655;DHT22;19997;51.274;22.506;2023-04-25T01:24:54;13.20;78.80
33655;DHT22;19997;51.274;22.506;2023-04-25T01:27:22;13.20;78.60
33655;DHT22;19997;51.274;22.506;2023-04-25T01:29:50;13.20;78.70
33655;DHT22;19997;51.274;22.506;2023-04-25T01:32:18;13.10;78.50
33655;DHT22;19997;51.274;22.506;2023-04-25T01:34:46;13.10;78.60
33655;DHT22;19997;51.274;22.506;2023-04-25T01:37:13;13.10;78.70
33655;DHT22;19997;51.274;22.506;2023-04-25T01:39:42;13.10;78.70
33655;DHT22;19997;51.274;22.506;2023-04-25T01:42:10;13.00;78.80
33655;DHT22;19997;51.274;22.506;2023-04-25T01:44:37;13.00;78.90
33655;DHT22;19997;51.274;22.506;2023-04-25T01:47:05;12.90;79.10
33655;DHT22;19997;51.274;22.506;2023-04-25T01:49:32;12.80;79.10
33655;DHT22;19997;51.274;22.506;2023-04-25T01:51:59;12.80;79.40
33655;DHT22;19997;51.274;22.506;2023-04-25T01:54:26;12.80;79.40
33655;DHT22;19997;51.274;22.506;2023-04-25T01:56:57;12.70;79.40
33655;DHT22;19997;51.274;22.506;2023-04-25T01:59:24;12.70;79.90
33655;DHT22;19997;51.274;22.506;2023-04-25T02:02:10;12.70;80.10
33655;DHT22;19997;51.274;22.506;2023-04-25T02:04:37;12.60;80.20
33655;DHT22;19997;51.274;22.506;2023-04-25T02:07:05;12.60;80.00
33655;DHT22;19997;51.274;22.506;2023-04-25T02:09:42;12.60;80.10
33655;DHT22;19997;51.274;22.506;2023-04-25T02:12:12;12.60;80.10
33655;DHT22;19997;51.274;22.506;2023-04-25T02:15:09;12.70;80.30
33655;DHT22;19997;51.274;22.506;2023-04-25T02:17:52;12.70;80.40
33655;DHT22;19997;51.274;22.506;2023-04-25T02:20:20;12.80;80.60
33655;DHT22;19997;51.274;22.506;2023-04-25T02:22:48;12.80;80.70
33655;DHT22;19997;51.274;22.506;2023-04-25T02:25:15;12.80;80.70
33655;DHT22;19997;51.274;22.506;2023-04-25T02:27:44;12.80;80.60
33655;DHT22;19997;51.274;22.506;2023-04-25T02:30:12;12.80;80.40
33655;DHT22;19997;51.274;22.506;2023-04-25T02:32:39;12.80;80.30
33655;DHT22;19997;51.274;22.506;2023-04-25T02:35:07;12.80;80.10
33655;DHT22;19997;51.274;22.506;2023-04-25T02:37:35;12.70;80.10
33655;DHT22;19997;51.274;22.506;2023-04-25T02:40:03;12.70;80.30
33655;DHT22;19997;51.274;22.506;2023-04-25T02:42:31;12.60;80.20
33655;DHT22;19997;51.274;22.506;2023-04-25T02:45:00;12.60;80.30
33655;DHT22;19997;51.274;22.506;2023-04-25T02:47:28;12.60;80.40
33655;DHT22;19997;51.274;22.506;2023-04-25T02:49:55;12.50;80.30
33655;DHT22;19997;51.274;22.506;2023-04-25T02:52:22;12.50;80.20
33655;DHT22;19997;51.274;22.506;2023-04-25T02:54:57;12.50;80.30
33655;DHT22;19997;51.274;22.506;2023-04-25T02:57:26;12.50;80.30
33655;DHT22;19997;51.274;22.506;2023-04-25T02:59:53;12.50;80.30
33655;DHT22;19997;51.274;22.506;2023-04-25T03:02:22;12.60;80.30
33655;DHT22;19997;51.274;22.506;2023-04-25T03:04:49;12.60;80.20
33655;DHT22;19997;51.274;22.506;2023-04-25T03:07:16;12.70;80.20
33655;DHT22;19997;51.274;22.506;2023-04-25T03:09:43;12.70;80.10
33655;DHT22;19997;51.274;22.506;2023-04-25T03:12:10;12.70;80.00
33655;DHT22;19997;51.274;22.506;2023-04-25T03:14:37;12.80;80.00
33655;DHT22;19997;51.274;22.506;2023-04-25T03:17:05;12.80;79.90
33655;DHT22;19997;51.274;22.506;2023-04-25T03:19:36;12.90;79.80
33655;DHT22;19997;51.274;22.506;2023-04-25T03:22:03;13.00;79.60
33655;DHT22;19997;51.274;22.506;2023-04-25T03:24:30;13.10;79.40
33655;DHT22;19997;51.274;22.506;2023-04-25T03:26:57;13.20;79.40
33655;DHT22;19997;51.274;22.506;2023-04-25T03:29:25;13.20;79.20
33655;DHT22;19997;51.274;22.506;2023-04-25T03:31:54;13.30;79.10
33655;DHT22;19997;51.274;22.506;2023-04-25T03:34:21;13.50;78.80
33655;DHT22;19997;51.274;22.506;2023-04-25T03:36:51;13.60;78.60
33655;DHT22;19997;51.274;22.506;2023-04-25T03:39:18;13.60;78.30
33655;DHT22;19997;51.274;22.506;2023-04-25T03:41:49;13.70;78.00
33655;DHT22;19997;51.274;22.506;2023-04-25T03:44:17;13.80;77.70
33655;DHT22;19997;51.274;22.506;2023-04-25T03:46:45;13.90;77.50
33655;DHT22;19997;51.274;22.506;2023-04-25T03:49:12;14.00;77.20
33655;DHT22;19997;51.274;22.506;2023-04-25T03:51:56;14.10;77.00
33655;DHT22;19997;51.274;22.506;2023-04-25T03:54:23;14.10;76.70
33655;DHT22;19997;51.274;22.506;2023-04-25T03:56:56;14.20;76.60
33655;DHT22;19997;51.274;22.506;2023-04-25T03:59:27;14.20;76.20
33655;DHT22;19997;51.274;22.506;2023-04-25T04:01:54;14.20;76.00
33655;DHT22;19997;51.274;22.506;2023-04-25T04:04:21;14.20;75.90
33655;DHT22;19997;51.274;22.506;2023-04-25T04:06:48;14.20;75.90
33655;DHT22;19997;51.274;22.506;2023-04-25T04:09:23;14.30;76.00
33655;DHT22;19997;51.274;22.506;2023-04-25T04:11:51;14.30;75.90
33655;DHT22;19997;51.274;22.506;2023-04-25T04:14:18;14.30;75.80
33655;DHT22;19997;51.274;22.506;2023-04-25T04:16:46;14.40;75.90
33655;DHT22;19997;51.274;22.506;2023-04-25T04:19:14;14.40;75.80
33655;DHT22;19997;51.274;22.506;2023-04-25T04:21:47;14.40;75.80
33655;DHT22;19997;51.274;22.506;2023-04-25T04:24:14;14.40;75.90
33655;DHT22;19997;51.274;22.506;2023-04-25T04:27:13;14.40;75.90
33655;DHT22;19997;51.274;22.506;2023-04-25T04:29:53;14.40;75.90
33655;DHT22;19997;51.274;22.506;2023-04-25T04:32:31;14.40;75.90
33655;DHT22;19997;51.274;22.506;2023-04-25T04:35:00;14.40;76.00
33655;DHT22;19997;51.274;22.506;2023-04-25T04:37:27;14.40;75.90
33655;DHT22;19997;51.274;22.506;2023-04-25T04:39:57;14.50;75.90
33655;DHT22;19997;51.274;22.506;2023-04-25T04:42:31;14.50;75.90
33655;DHT22;19997;51.274;22.506;2023-04-25T04:45:05;14.50;75.90
33655;DHT22;19997;51.274;22.506;2023-04-25T04:47:51;14.50;76.00
33655;DHT22;19997;51.274;22.506;2023-04-25T04:50:39;14.50;76.00
33655;DHT22;19997;51.274;22.506;2023-04-25T04:53:25;14.50;76.00
33655;DHT22;19997;51.274;22.506;2023-04-25T04:56:12;14.50;76.80
33655;DHT22;19997;51.274;22.506;2023-04-25T04:59:16;14.50;76.40
33655;DHT22;19997;51.274;22.506;2023-04-25T05:02:01;14.50;76.30
33655;DHT22;19997;51.274;22.506;2023-04-25T05:04:56;14.50;76.40
33655;DHT22;19997;51.274;22.506;2023-04-25T05:07:44;14.50;76.40
33655;DHT22;19997;51.274;22.506;2023-04-25T05:10:29;14.60;76.50
33655;DHT22;19997;51.274;22.506;2023-04-25T05:12:56;14.60;76.40
33655;DHT22;19997;51.274;22.506;2023-04-25T05:15:30;14.60;76.60
33655;DHT22;19997;51.274;22.506;2023-04-25T05:18:16;14.60;76.70
33655;DHT22;19997;51.274;22.506;2023-04-25T05:20:56;14.60;77.00
33655;DHT22;19997;51.274;22.506;2023-04-25T05:23:37;14.60;77.10
33655;DHT22;19997;51.274;22.506;2023-04-25T05:26:23;14.60;77.40
33655;DHT22;19997;51.274;22.506;2023-04-25T05:29:20;14.70;77.50
33655;DHT22;19997;51.274;22.506;2023-04-25T05:32:14;14.70;77.60
33655;DHT22;19997;51.274;22.506;2023-04-25T05:34:41;14.80;77.70
33655;DHT22;19997;51.274;22.506;2023-04-25T05:37:17;14.70;77.70
33655;DHT22;19997;51.274;22.506;2023-04-25T05:39:53;14.70;77.60
33655;DHT22;19997;51.274;22.506;2023-04-25T05:42:39;14.80;77.50
33655;DHT22;19997;51.274;22.506;2023-04-25T05:45:32;14.90;77.40
33655;DHT22;19997;51.274;22.506;2023-04-25T05:48:10;14.90;77.40
33655;DHT22;19997;51.274;22.506;2023-04-25T05:51:00;14.90;77.20
33655;DHT22;19997;51.274;22.506;2023-04-25T05:53:46;15.00;77.20
33655;DHT22;19997;51.274;22.506;2023-04-25T05:56:14;15.00;77.20
33655;DHT22;19997;51.274;22.506;2023-04-25T05:58:41;14.90;77.10
33655;DHT22;19997;51.274;22.506;2023-04-25T06:01:11;14.90;77.10
33655;DHT22;19997;51.274;22.506;2023-04-25T06:03:40;15.00;77.40
33655;DHT22;19997;51.274;22.506;2023-04-25T06:06:08;14.90;77.40
33655;DHT22;19997;51.274;22.506;2023-04-25T06:08:36;14.90;77.40
33655;DHT22;19997;51.274;22.506;2023-04-25T06:11:04;14.90;77.70
33655;DHT22;19997;51.274;22.506;2023-04-25T06:13:31;14.90;77.70
33655;DHT22;19997;51.274;22.506;2023-04-25T06:15:59;14.80;78.20
33655;DHT22;19997;51.274;22.506;2023-04-25T06:18:26;14.70;78.60
33655;DHT22;19997;51.274;22.506;2023-04-25T06:20:54;14.70;79.00
33655;DHT22;19997;51.274;22.506;2023-04-25T06:23:22;14.60;79.00
33655;DHT22;19997;51.274;22.506;2023-04-25T06:25:58;14.60;78.90
33655;DHT22;19997;51.274;22.506;2023-04-25T06:28:27;14.60;79.70
33655;DHT22;19997;51.274;22.506;2023-04-25T06:30:54;14.50;80.00
33655;DHT22;19997;51.274;22.506;2023-04-25T06:33:22;14.50;80.40
33655;DHT22;19997;51.274;22.506;2023-04-25T06:35:50;14.50;80.70
33655;DHT22;19997;51.274;22.506;2023-04-25T06:38:24;14.50;80.70
33655;DHT22;19997;51.274;22.506;2023-04-25T06:40:52;14.50;81.00
33655;DHT22;19997;51.274;22.506;2023-04-25T06:43:19;14.50;80.80
33655;DHT22;19997;51.274;22.506;2023-04-25T06:45:55;14.50;81.40
33655;DHT22;19997;51.274;22.506;2023-04-25T06:48:26;14.50;81.20
33655;DHT22;19997;51.274;22.506;2023-04-25T06:50:54;14.50;81.40
33655;DHT22;19997;51.274;22.506;2023-04-25T06:53:24;14.60;81.70
33655;DHT22;19997;51.274;22.506;2023-04-25T06:55:57;14.60;81.70
33655;DHT22;19997;51.274;22.506;2023-04-25T06:58:29;14.70;82.10
33655;DHT22;19997;51.274;22.506;2023-04-25T07:01:16;14.70;82.10
33655;DHT22;19997;51.274;22.506;2023-04-25T07:03:43;14.80;82.40
33655;DHT22;19997;51.274;22.506;2023-04-25T07:06:16;14.90;82.50
33655;DHT22;19997;51.274;22.506;2023-04-25T07:08:44;15.00;82.50
33655;DHT22;19997;51.274;22.506;2023-04-25T07:11:11;15.10;82.20
33655;DHT22;19997;51.274;22.506;2023-04-25T07:13:39;15.30;81.90
33655;DHT22;19997;51.274;22.506;2023-04-25T07:16:06;15.30;81.40
33655;DHT22;19997;51.274;22.506;2023-04-25T07:18:35;15.40;81.30
33655;DHT22;19997;51.274;22.506;2023-04-25T07:21:03;15.60;81.20
33655;DHT22;19997;51.274;22.506;2023-04-25T07:23:32;15.70;80.90
33655;DHT22;19997;51.274;22.506;2023-04-25T07:26:05;15.90;80.60
33655;DHT22;19997;51.274;22.506;2023-04-25T07:28:32;16.10;80.40
33655;DHT22;19997;51.274;22.506;2023-04-25T07:30:59;16.20;80.20
33655;DHT22;19997;51.274;22.506;2023-04-25T07:33:26;16.30;80.10
33655;DHT22;19997;51.274;22.506;2023-04-25T07:35:54;16.30;79.80
33655;DHT22;19997;51.274;22.506;2023-04-25T07:38:21;16.30;79.40
33655;DHT22;19997;51.274;22.506;2023-04-25T07:40:49;16.20;79.20
33655;DHT22;19997;51.274;22.506;2023-04-25T07:43:17;16.00;79.40
33655;DHT22;19997;51.274;22.506;2023-04-25T07:45:57;15.90;79.90
33655;DHT22;19997;51.274;22.506;2023-04-25T07:48:26;15.90;80.10
33655;DHT22;19997;51.274;22.506;2023-04-25T07:50:54;15.90;80.20
33655;DHT22;19997;51.274;22.506;2023-04-25T07:53:21;15.90;80.30
33655;DHT22;19997;51.274;22.506;2023-04-25T07:55:55;16.00;80.30
33655;DHT22;19997;51.274;22.506;2023-04-25T07:58:24;16.00;80.30
33655;DHT22;19997;51.274;22.506;2023-04-25T08:00:55;16.10;80.30
33655;DHT22;19997;51.274;22.506;2023-04-25T08:03:34;16.20;80.20
33655;DHT22;19997;51.274;22.506;2023-04-25T08:06:04;16.10;80.10
33655;DHT22;19997;51.274;22.506;2023-04-25T08:08:36;16.20;80.00
33655;DHT22;19997;51.274;22.506;2023-04-25T08:11:05;16.20;80.00
33655;DHT22;19997;51.274;22.506;2023-04-25T08:13:34;16.20;80.20
33655;DHT22;19997;51.274;22.506;2023-04-25T08:16:01;16.20;81.20
33655;DHT22;19997;51.274;22.506;2023-04-25T08:18:28;16.20;80.50
33655;DHT22;19997;51.274;22.506;2023-04-25T08:20:57;16.10;80.60
33655;DHT22;19997;51.274;22.506;2023-04-25T08:23:24;16.00;80.60
33655;DHT22;19997;51.274;22.506;2023-04-25T08:26:00;15.90;80.50
33655;DHT22;19997;51.274;22.506;2023-04-25T08:28:29;15.90;80.50
33655;DHT22;19997;51.274;22.506;2023-04-25T08:31:00;15.80;80.50
33655;DHT22;19997;51.274;22.506;2023-04-25T08:33:34;15.90;80.90
33655;DHT22;19997;51.274;22.506;2023-04-25T08:36:12;15.90;81.00
33655;DHT22;19997;51.274;22.506;2023-04-25T08:38:39;16.00;81.10
33655;DHT22;19997;51.274;22.506;2023-04-25T08:41:11;16.10;81.10
33655;DHT22;19997;51.274;22.506;2023-04-25T08:43:42;16.20;81.20
33655;DHT22;19997;51.274;22.506;2023-04-25T08:46:11;16.30;81.30
33655;DHT22;19997;51.274;22.506;2023-04-25T08:48:49;16.30;81.20
33655;DHT22;19997;51.274;22.506;2023-04-25T08:51:22;16.30;81.20
33655;DHT22;19997;51.274;22.506;2023-04-25T08:53:51;16.30;81.30
33655;DHT22;19997;51.274;22.506;2023-04-25T08:56:19;16.30;81.70
33655;DHT22;19997;51.274;22.506;2023-04-25T08:58:49;16.20;81.90
33655;DHT22;19997;51.274;22.506;2023-04-25T09:01:18;16.10;82.10
33655;DHT22;19997;51.274;22.506;2023-04-25T09:03:50;16.10;82.40
33655;DHT22;19997;51.274;22.506;2023-04-25T09:06:19;16.10;82.80
33655;DHT22;19997;51.274;22.506;2023-04-25T09:08:49;16.10;83.00
33655;DHT22;19997;51.274;22.506;2023-04-25T09:11:16;16.10;83.00
33655;DHT22;19997;51.274;22.506;2023-04-25T09:13:44;16.20;82.70
33655;DHT22;19997;51.274;22.506;2023-04-25T09:16:57;16.20;82.90
33655;DHT22;19997;51.274;22.506;2023-04-25T09:19:40;16.20;83.10
33655;DHT22;19997;51.274;22.506;2023-04-25T09:22:30;16.20;83.00
33655;DHT22;19997;51.274;22.506;2023-04-25T09:24:57;16.20;83.10
33655;DHT22;19997;51.274;22.506;2023-04-25T09:27:29;16.10;83.30
33655;DHT22;19997;51.274;22.506;2023-04-25T09:30:04;16.10;83.40
33655;DHT22;19997;51.274;22.506;2023-04-25T09:32:50;16.10;83.70
33655;DHT22;19997;51.274;22.506;2023-04-25T09:35:25;16.10;83.90
33655;DHT22;19997;51.274;22.506;2023-04-25T09:37:54;16.10;84.10
33655;DHT22;19997;51.274;22.506;2023-04-25T09:40:40;16.10;84.30
33655;DHT22;19997;51.274;22.506;2023-04-25T09:43:19;16.00;84.40
33655;DHT22;19997;51.274;22.506;2023-04-25T09:45:49;16.00;84.70
33655;DHT22;19997;51.274;22.506;2023-04-25T09:48:20;16.00;84.80
33655;DHT22;19997;51.274;22.506;2023-04-25T09:51:04;15.90;85.00
33655;DHT22;19997;51.274;22.506;2023-04-25T09:53:33;15.90;85.20
33655;DHT22;19997;51.274;22.506;2023-04-25T09:56:22;15.90;85.30
33655;DHT22;19997;51.274;22.506;2023-04-25T09:58:50;15.90;85.40
33655;DHT22;19997;51.274;22.506;2023-04-25T10:01:21;15.90;85.50
33655;DHT22;19997;51.274;22.506;2023-04-25T10:04:10;15.80;85.50
33655;DHT22;19997;51.274;22.506;2023-04-25T10:06:42;15.80;85.70
33655;DHT22;19997;51.274;22.506;2023-04-25T10:09:10;15.70;85.70
33655;DHT22;19997;51.274;22.506;2023-04-25T10:11:39;15.70;86.00
33655;DHT22;19997;51.274;22.506;2023-04-25T10:14:07;15.70;86.10
33655;DHT22;19997;51.274;22.506;2023-04-25T10:16:35;15.70;86.30
33655;DHT22;19997;51.274;22.506;2023-04-25T10:19:03;15.60;86.50
33655;DHT22;19997;51.274;22.506;2023-04-25T10:21:32;15.60;86.70
33655;DHT22;19997;51.274;22.506;2023-04-25T10:24:00;15.60;86.90
33655;DHT22;19997;51.274;22.506;2023-04-25T10:26:28;15.50;87.00
33655;DHT22;19997;51.274;22.506;2023-04-25T10:28:56;15.50;87.20
33655;DHT22;19997;51.274;22.506;2023-04-25T10:31:24;15.50;87.60
33655;DHT22;19997;51.274;22.506;2023-04-25T10:33:51;15.50;87.90
33655;DHT22;19997;51.274;22.506;2023-04-25T10:36:19;15.40;88.10
33655;DHT22;19997;51.274;22.506;2023-04-25T10:38:50;15.50;88.50
33655;DHT22;19997;51.274;22.506;2023-04-25T10:41:19;15.50;88.80
33655;DHT22;19997;51.274;22.506;2023-04-25T10:43:47;15.50;88.80
33655;DHT22;19997;51.274;22.506;2023-04-25T10:46:16;15.50;88.90
33655;DHT22;19997;51.274;22.506;2023-04-25T10:48:49;15.60;89.20
33655;DHT22;19997;51.274;22.506;2023-04-25T10:51:21;15.60;89.40
33655;DHT22;19997;51.274;22.506;2023-04-25T10:53:59;15.50;89.50
33655;DHT22;19997;51.274;22.506;2023-04-25T10:56:28;15.50;90.20
33655;DHT22;19997;51.274;22.506;2023-04-25T10:59:14;15.50;89.70
33655;DHT22;19997;51.274;22.506;2023-04-25T11:01:42;15.40;90.00
33655;DHT22;19997;51.274;22.506;2023-04-25T11:04:19;15.40;90.20
33655;DHT22;19997;51.274;22.506;2023-04-25T11:06:57;15.40;90.60
33655;DHT22;19997;51.274;22.506;2023-04-25T11:09:26;15.40;90.70
33655;DHT22;19997;51.274;22.506;2023-04-25T11:11:54;15.60;90.90
33655;DHT22;19997;51.274;22.506;2023-04-25T11:14:22;15.60;90.90
33655;DHT22;19997;51.274;22.506;2023-04-25T11:16:53;15.70;90.90
33655;DHT22;19997;51.274;22.506;2023-04-25T11:19:21;15.80;90.90
33655;DHT22;19997;51.274;22.506;2023-04-25T11:21:48;15.90;90.90
33655;DHT22;19997;51.274;22.506;2023-04-25T11:24:16;16.00;91.00
33655;DHT22;19997;51.274;22.506;2023-04-25T11:26:46;16.10;91.00
33655;DHT22;19997;51.274;22.506;2023-04-25T11:29:14;16.20;90.80
33655;DHT22;19997;51.274;22.506;2023-04-25T11:31:43;16.20;90.80
33655;DHT22;19997;51.274;22.506;2023-04-25T11:34:10;16.20;90.70
33655;DHT22;19997;51.274;22.506;2023-04-25T11:36:39;16.20;90.70
33655;DHT22;19997;51.274;22.506;2023-04-25T11:39:06;16.20;90.70
33655;DHT22;19997;51.274;22.506;2023-04-25T11:41:33;16.20;90.70
33655;DHT22;19997;51.274;22.506;2023-04-25T11:44:02;16.20;90.80
33655;DHT22;19997;51.274;22.506;2023-04-25T11:46:30;16.20;90.80
33655;DHT22;19997;51.274;22.506;2023-04-25T11:48:57;16.10;90.70
33655;DHT22;19997;51.274;22.506;2023-04-25T11:51:24;15.90;89.50
33655;DHT22;19997;51.274;22.506;2023-04-25T11:53:52;15.50;90.10
33655;DHT22;19997;51.274;22.506;2023-04-25T11:56:21;15.00;90.80
33655;DHT22;19997;51.274;22.506;2023-04-25T11:58:56;14.70;91.50
33655;DHT22;19997;51.274;22.506;2023-04-25T12:01:29;14.40;92.40
33655;DHT22;19997;51.274;22.506;2023-04-25T12:03:58;14.10;92.50
33655;DHT22;19997;51.274;22.506;2023-04-25T12:06:37;13.80;93.30
33655;DHT22;19997;51.274;22.506;2023-04-25T12:09:08;13.50;94.40
33655;DHT22;19997;51.274;22.506;2023-04-25T12:11:41;13.20;95.60
33655;DHT22;19997;51.274;22.506;2023-04-25T12:14:09;13.00;97.20
33655;DHT22;19997;51.274;22.506;2023-04-25T12:16:45;12.90;99.50
33655;DHT22;19997;51.274;22.506;2023-04-25T12:19:14;12.70;99.90
33655;DHT22;19997;51.274;22.506;2023-04-25T12:21:42;12.70;99.90
33655;DHT22;19997;51.274;22.506;2023-04-25T12:24:10;12.60;99.90
33655;DHT22;19997;51.274;22.506;2023-04-25T12:26:48;12.50;99.90
33655;DHT22;19997;51.274;22.506;2023-04-25T12:29:18;12.50;99.90
33655;DHT22;19997;51.274;22.506;2023-04-25T12:31:46;12.50;99.90
33655;DHT22;19997;51.274;22.506;2023-04-25T12:34:14;12.50;99.90
33655;DHT22;19997;51.274;22.506;2023-04-25T12:36:41;12.50;99.90
33655;DHT22;19997;51.274;22.506;2023-04-25T12:39:08;12.50;99.90
33655;DHT22;19997;51.274;22.506;2023-04-25T12:41:35;12.40;99.90
33655;DHT22;19997;51.274;22.506;2023-04-25T12:44:03;12.50;99.90
33655;DHT22;19997;51.274;22.506;2023-04-25T12:46:30;12.50;99.90
33655;DHT22;19997;51.274;22.506;2023-04-25T12:48:59;12.60;99.90
33655;DHT22;19997;51.274;22.506;2023-04-25T12:51:27;12.50;99.90
33655;DHT22;19997;51.274;22.506;2023-04-25T12:53:54;12.50;99.90
33655;DHT22;19997;51.274;22.506;2023-04-25T12:56:21;12.40;99.90
33655;DHT22;19997;51.274;22.506;2023-04-25T12:58:48;12.40;99.90
33655;DHT22;19997;51.274;22.506;2023-04-25T13:01:15;12.30;99.90
33655;DHT22;19997;51.274;22.506;2023-04-25T13:03:42;12.30;99.90
33655;DHT22;19997;51.274;22.506;2023-04-25T13:06:12;12.30;99.90
33655;DHT22;19997;51.274;22.506;2023-04-25T13:08:39;12.20;99.90
33655;DHT22;19997;51.274;22.506;2023-04-25T13:11:07;12.20;99.90
33655;DHT22;19997;51.274;22.506;2023-04-25T13:13:34;12.20;99.90
33655;DHT22;19997;51.274;22.506;2023-04-25T13:16:01;12.20;99.90
33655;DHT22;19997;51.274;22.506;2023-04-25T13:18:28;12.20;99.90
33655;DHT22;19997;51.274;22.506;2023-04-25T13:20:55;12.20;99.90
33655;DHT22;19997;51.274;22.506;2023-04-25T13:23:25;12.20;99.90
33655;DHT22;19997;51.274;22.506;2023-04-25T13:25:52;12.20;99.90
33655;DHT22;19997;51.274;22.506;2023-04-25T13:28:20;12.20;99.90
33655;DHT22;19997;51.274;22.506;2023-04-25T13:30:47;12.20;99.90
33655;DHT22;19997;51.274;22.506;2023-04-25T13:33:15;12.20;99.90
33655;DHT22;19997;51.274;22.506;2023-04-25T13:35:42;12.20;99.90
33655;DHT22;19997;51.274;22.506;2023-04-25T13:38:12;12.20;99.90
33655;DHT22;19997;51.274;22.506;2023-04-25T13:40:41;12.10;99.90
33655;DHT22;19997;51.274;22.506;2023-04-25T13:43:08;12.10;99.90
33655;DHT22;19997;51.274;22.506;2023-04-25T13:45:35;12.00;99.90
33655;DHT22;19997;51.274;22.506;2023-04-25T13:48:02;11.80;99.90
33655;DHT22;19997;51.274;22.506;2023-04-25T13:50:29;11.80;99.90
33655;DHT22;19997;51.274;22.506;2023-04-25T13:52:57;11.80;99.90
33655;DHT22;19997;51.274;22.506;2023-04-25T13:55:24;11.70;99.90
33655;DHT22;19997;51.274;22.506;2023-04-25T13:57:53;11.60;99.90
33655;DHT22;19997;51.274;22.506;2023-04-25T14:00:20;11.60;99.90
33655;DHT22;19997;51.274;22.506;2023-04-25T14:02:47;11.60;99.90
33655;DHT22;19997;51.274;22.506;2023-04-25T14:05:15;11.50;99.90
33655;DHT22;19997;51.274;22.506;2023-04-25T14:07:42;11.50;99.90
33655;DHT22;19997;51.274;22.506;2023-04-25T14:10:09;11.50;99.90
33655;DHT22;19997;51.274;22.506;2023-04-25T14:12:36;11.50;99.90
33655;DHT22;19997;51.274;22.506;2023-04-25T14:15:06;11.50;99.90
33655;DHT22;19997;51.274;22.506;2023-04-25T14:17:33;11.50;99.90
33655;DHT22;19997;51.274;22.506;2023-04-25T14:20:03;11.60;99.90
33655;DHT22;19997;51.274;22.506;2023-04-25T14:22:31;11.70;99.90
33655;DHT22;19997;51.274;22.506;2023-04-25T14:24:58;11.80;99.90
33655;DHT22;19997;51.274;22.506;2023-04-25T14:27:25;11.80;99.90
33655;DHT22;19997;51.274;22.506;2023-04-25T14:29:53;11.70;99.90
33655;DHT22;19997;51.274;22.506;2023-04-25T14:32:22;11.80;99.90
33655;DHT22;19997;51.274;22.506;2023-04-25T14:34:49;11.70;99.90
33655;DHT22;19997;51.274;22.506;2023-04-25T14:37:16;11.70;99.90
33655;DHT22;19997;51.274;22.506;2023-04-25T14:39:43;11.60;99.90
33655;DHT22;19997;51.274;22.506;2023-04-25T14:42:10;11.60;99.90
33655;DHT22;19997;51.274;22.506;2023-04-25T14:44:38;11.60;99.90
33655;DHT22;19997;51.274;22.506;2023-04-25T14:47:05;11.50;99.90
33655;DHT22;19997;51.274;22.506;2023-04-25T14:49:34;11.50;99.90
33655;DHT22;19997;51.274;22.506;2023-04-25T14:52:01;11.50;99.90
33655;DHT22;19997;51.274;22.506;2023-04-25T14:54:28;11.60;99.90
33655;DHT22;19997;51.274;22.506;2023-04-25T14:56:55;11.50;99.90
33655;DHT22;19997;51.274;22.506;2023-04-25T14:59:23;11.50;99.90
33655;DHT22;19997;51.274;22.506;2023-04-25T15:01:50;11.50;99.90
33655;DHT22;19997;51.274;22.506;2023-04-25T15:04:18;11.50;99.90
33655;DHT22;19997;51.274;22.506;2023-04-25T15:06:47;11.50;99.90
33655;DHT22;19997;51.274;22.506;2023-04-25T15:09:14;11.50;99.90
33655;DHT22;19997;51.274;22.506;2023-04-25T15:11:42;11.40;99.90
33655;DHT22;19997;51.274;22.506;2023-04-25T15:14:12;11.50;99.90
33655;DHT22;19997;51.274;22.506;2023-04-25T15:16:39;11.40;99.90
33655;DHT22;19997;51.274;22.506;2023-04-25T15:19:07;11.40;99.90
33655;DHT22;19997;51.274;22.506;2023-04-25T15:21:35;11.40;99.90
33655;DHT22;19997;51.274;22.506;2023-04-25T15:24:04;11.40;99.90
33655;DHT22;19997;51.274;22.506;2023-04-25T15:26:32;11.30;99.90
33655;DHT22;19997;51.274;22.506;2023-04-25T15:28:59;11.20;99.90
33655;DHT22;19997;51.274;22.506;2023-04-25T15:31:26;11.20;99.90
33655;DHT22;19997;51.274;22.506;2023-04-25T15:33:54;11.10;99.90
33655;DHT22;19997;51.274;22.506;2023-04-25T15:36:21;11.10;99.90